New York, NY

11:39 PM EDT on August 30, 2015 (GMT -0400)
Murray Hill | | Change Station
CLOSE
Current Station
Personal Weather Station
Location: New York, NY
Elevation: 98 ft
Nearby Weather Stations

Elev 98 ft 40.75 °N, 73.98 °W | Updated 1 second ago

Overcast
Overcast
79.9 °F
Feels Like 83 °F
N
0.0
Wind Variable Wind from WNW
Gusts 5.0 mph

Today
High -- | Low -- °F
--% Chance of Precip.
Yesterday
High -- | Low -- °F
Precip. -- in
6:20 AM 7:31 PM
Full, 97% visible
Pressure 30.04 in
Visibility 7.0 miles
Clouds Few 6500 ft
Overcast 11000 ft
Heat Index 83 °F
Dew Point 69 °F
Humidity 70%
Rainfall 0.18 in
Snow Depth Not available.
UV 0 out of 12
Pollen 10.30 out of 12
Air Quality Not available.
Flu Activity Not available.
METAR KNYC 310251Z AUTO 25004KT 7SM FEW065 OVC110 24/21 A3007 RMK AO2 RAE10 SLP171 P0012 60013 T02390211 50009 $
Pressure 30.04 in
Visibility 7.0 miles
Clouds Few 6500 ft
Overcast 11000 ft
Heat Index 83 °F
Dew Point 69 °F
Humidity 70%
Rainfall 0.18 in
Snow Depth Not available.
UV 0 out of 12
Pollen 10.30 out of 12
Air Quality Not available.
Flu Activity Not available.
METAR KNYC 310251Z AUTO 25004KT 7SM FEW065 OVC110 24/21 A3007 RMK AO2 RAE10 SLP171 P0012 60013 T02390211 50009 $

10-Day Weather Forecast

×

Almanac

Astronomy

Aug. 30, 2015 Rise Set
Actual Time
Civil Twilight
Nautical Twilight
Astronomical Twilight
Moon
Length of Visible Light
Length of Day
Tomorrow will be .
, % of the Moon is Illuminated

Today's Extremes

State Highs State Lows

Community

WunderPhotos

Upload Photos

1,851,175 photos uploaded!

WunderBlogs® & News

Nearby

Air Quality

  Air Quality AQ Index Pollutant
Not available.

Snow Depth

Station Depth Elevation

Earthquake Activity

City Distance Mag. Time & Date
Minimum magnitude displayed is 2.5.

Coastal Water Temperatures

Place Temperature

Stations

Nearby Weather Stations

Station Location Temp. Windchill Dew Point Humidity Wind Precip. Elev Updated Type